sensor_id;sensor_type;location;lat;lon;timestamp;pressure;altitude;pressure_sealevel;temperature;humidity
39769;BME280;38939;47.824;14.642;2023-12-22T00:00:03;94979.22;;;5.58;93.57
39769;BME280;38939;47.824;14.642;2023-12-22T00:01:06;94975.41;;;5.61;93.43
39769;BME280;38939;47.824;14.642;2023-12-22T00:02:08;94995.31;;;5.60;93.62
39769;BME280;38939;47.824;14.642;2023-12-22T00:03:10;94999.91;;;5.58;93.31
39769;BME280;38939;47.824;14.642;2023-12-22T00:04:12;94989.56;;;5.58;93.42
39769;BME280;38939;47.824;14.642;2023-12-22T00:05:14;94988.13;;;5.63;93.11
39769;BME280;38939;47.824;14.642;2023-12-22T00:06:16;94986.88;;;5.65;91.97
39769;BME280;38939;47.824;14.642;2023-12-22T00:07:18;94973.31;;;5.70;92.63
39769;BME280;38939;47.824;14.642;2023-12-22T00:08:22;94961.59;;;5.67;91.74
39769;BME280;38939;47.824;14.642;2023-12-22T00:09:25;94980.50;;;5.68;91.90
39769;BME280;38939;47.824;14.642;2023-12-22T00:10:27;94974.75;;;5.66;92.39
39769;BME280;38939;47.824;14.642;2023-12-22T00:11:29;95000.06;;;5.64;92.10
39769;BME280;38939;47.824;14.642;2023-12-22T00:12:30;94991.50;;;5.63;92.36
39769;BME280;38939;47.824;14.642;2023-12-22T00:13:32;95000.06;;;5.64;92.87
39769;BME280;38939;47.824;14.642;2023-12-22T00:14:36;94984.31;;;5.65;92.52
39769;BME280;38939;47.824;14.642;2023-12-22T00:15:38;94961.03;;;5.65;93.03
39769;BME280;38939;47.824;14.642;2023-12-22T00:16:40;94956.28;;;5.62;92.85
39769;BME280;38939;47.824;14.642;2023-12-22T00:17:42;94947.97;;;5.60;92.61
39769;BME280;38939;47.824;14.642;2023-12-22T00:18:45;94943.78;;;5.59;92.27
39769;BME280;38939;47.824;14.642;2023-12-22T00:19:46;94962.47;;;5.61;92.43
39769;BME280;38939;47.824;14.642;2023-12-22T00:20:48;94964.47;;;5.59;92.97
39769;BME280;38939;47.824;14.642;2023-12-22T00:21:50;94959.31;;;5.59;93.14
39769;BME280;38939;47.824;14.642;2023-12-22T00:22:52;94958.88;;;5.62;93.27
39769;BME280;38939;47.824;14.642;2023-12-22T00:23:54;94965.28;;;5.59;93.21
39769;BME280;38939;47.824;14.642;2023-12-22T00:24:56;94960.53;;;5.56;93.52
39769;BME280;38939;47.824;14.642;2023-12-22T00:25:58;94963.56;;;5.53;93.71
39769;BME280;38939;47.824;14.642;2023-12-22T00:27:00;94982.09;;;5.50;94.38
39769;BME280;38939;47.824;14.642;2023-12-22T00:28:02;94995.25;;;5.49;93.83
39769;BME280;38939;47.824;14.642;2023-12-22T00:29:04;94998.84;;;5.48;93.85
39769;BME280;38939;47.824;14.642;2023-12-22T00:30:09;94999.28;;;5.45;94.55
39769;BME280;38939;47.824;14.642;2023-12-22T00:31:11;95024.34;;;5.44;94.38
39769;BME280;38939;47.824;14.642;2023-12-22T00:32:16;95043.25;;;5.45;94.87
39769;BME280;38939;47.824;14.642;2023-12-22T00:33:18;95058.63;;;5.39;95.01
39769;BME280;38939;47.824;14.642;2023-12-22T00:34:21;95060.63;;;5.37;94.83
39769;BME280;38939;47.824;14.642;2023-12-22T00:35:23;95062.66;;;5.35;95.29
39769;BME280;38939;47.824;14.642;2023-12-22T00:36:25;95063.06;;;5.32;94.76
39769;BME280;38939;47.824;14.642;2023-12-22T00:37:27;95060.94;;;5.29;95.48
39769;BME280;38939;47.824;14.642;2023-12-22T00:38:29;95062.69;;;5.29;95.49
39769;BME280;38939;47.824;14.642;2023-12-22T00:39:31;95047.25;;;5.22;94.45
39769;BME280;38939;47.824;14.642;2023-12-22T00:40:33;95064.78;;;5.20;95.00
39769;BME280;38939;47.824;14.642;2023-12-22T00:41:36;95070.38;;;5.17;94.44
39769;BME280;38939;47.824;14.642;2023-12-22T00:42:38;95072.03;;;5.11;93.79
39769;BME280;38939;47.824;14.642;2023-12-22T00:43:39;95106.63;;;5.10;94.18
39769;BME280;38939;47.824;14.642;2023-12-22T00:44:41;95105.47;;;5.06;93.99
39769;BME280;38939;47.824;14.642;2023-12-22T00:45:43;95108.81;;;5.07;93.98
39769;BME280;38939;47.824;14.642;2023-12-22T00:46:45;95132.53;;;5.04;93.60
39769;BME280;38939;47.824;14.642;2023-12-22T00:47:47;95167.13;;;5.03;92.59
39769;BME280;38939;47.824;14.642;2023-12-22T00:48:49;95133.13;;;5.06;92.75
39769;BME280;38939;47.824;14.642;2023-12-22T00:49:51;95128.31;;;5.09;92.71
39769;BME280;38939;47.824;14.642;2023-12-22T00:50:53;95114.56;;;5.09;92.75
39769;BME280;38939;47.824;14.642;2023-12-22T00:51:55;95152.56;;;5.08;91.75
39769;BME280;38939;47.824;14.642;2023-12-22T00:52:57;95133.84;;;5.13;90.75
39769;BME280;38939;47.824;14.642;2023-12-22T00:53:59;95118.50;;;5.18;89.60
39769;BME280;38939;47.824;14.642;2023-12-22T00:55:01;95090.63;;;5.20;88.36
39769;BME280;38939;47.824;14.642;2023-12-22T00:56:06;95106.72;;;5.22;85.42
39769;BME280;38939;47.824;14.642;2023-12-22T00:57:08;95108.47;;;5.28;86.03
39769;BME280;38939;47.824;14.642;2023-12-22T00:58:09;95095.13;;;5.31;85.01
39769;BME280;38939;47.824;14.642;2023-12-22T00:59:11;95070.63;;;5.34;86.01
39769;BME280;38939;47.824;14.642;2023-12-22T01:00:13;95080.19;;;5.33;86.13
39769;BME280;38939;47.824;14.642;2023-12-22T01:01:15;95069.03;;;5.33;86.44
39769;BME280;38939;47.824;14.642;2023-12-22T01:02:17;95068.25;;;5.32;87.60
39769;BME280;38939;47.824;14.642;2023-12-22T01:03:19;95087.34;;;5.31;87.44
39769;BME280;38939;47.824;14.642;2023-12-22T01:04:21;95100.88;;;5.33;87.53
39769;BME280;38939;47.824;14.642;2023-12-22T01:05:23;95090.16;;;5.30;87.12
39769;BME280;38939;47.824;14.642;2023-12-22T01:06:25;95103.66;;;5.32;87.01
39769;BME280;38939;47.824;14.642;2023-12-22T01:07:31;95093.31;;;5.32;87.26
39769;BME280;38939;47.824;14.642;2023-12-22T01:08:33;95075.88;;;5.27;86.95
39769;BME280;38939;47.824;14.642;2023-12-22T01:09:35;95092.75;;;5.30;87.29
39769;BME280;38939;47.824;14.642;2023-12-22T01:10:39;95100.50;;;5.30;87.07
39769;BME280;38939;47.824;14.642;2023-12-22T01:11:41;95109.19;;;5.35;87.34
39769;BME280;38939;47.824;14.642;2023-12-22T01:12:43;95078.94;;;5.36;87.24
39769;BME280;38939;47.824;14.642;2023-12-22T01:13:44;95095.25;;;5.36;87.28
39769;BME280;38939;47.824;14.642;2023-12-22T01:14:46;95096.28;;;5.35;87.73
39769;BME280;38939;47.824;14.642;2023-12-22T01:15:50;95095.31;;;5.30;87.84
39769;BME280;38939;47.824;14.642;2023-12-22T01:16:52;95107.47;;;5.29;87.47
39769;BME280;38939;47.824;14.642;2023-12-22T01:17:54;95114.22;;;5.30;86.95
39769;BME280;38939;47.824;14.642;2023-12-22T01:18:56;95077.63;;;5.27;87.77
39769;BME280;38939;47.824;14.642;2023-12-22T01:19:58;95072.69;;;5.25;87.29
39769;BME280;38939;47.824;14.642;2023-12-22T01:21:00;95075.31;;;5.18;86.45
39769;BME280;38939;47.824;14.642;2023-12-22T01:22:02;95075.53;;;5.17;85.51
39769;BME280;38939;47.824;14.642;2023-12-22T01:23:04;95096.44;;;5.15;85.96
39769;BME280;38939;47.824;14.642;2023-12-22T01:24:06;95129.03;;;5.16;84.74
39769;BME280;38939;47.824;14.642;2023-12-22T01:25:08;95139.19;;;5.18;85.27
39769;BME280;38939;47.824;14.642;2023-12-22T01:26:09;95151.53;;;5.16;86.27
39769;BME280;38939;47.824;14.642;2023-12-22T01:27:11;95160.84;;;5.17;86.17
39769;BME280;38939;47.824;14.642;2023-12-22T01:28:13;95176.16;;;5.18;85.71
39769;BME280;38939;47.824;14.642;2023-12-22T01:29:15;95179.31;;;5.20;85.74
39769;BME280;38939;47.824;14.642;2023-12-22T01:30:17;95152.03;;;5.25;87.00
39769;BME280;38939;47.824;14.642;2023-12-22T01:31:19;95120.22;;;5.24;87.83
39769;BME280;38939;47.824;14.642;2023-12-22T01:32:21;95143.91;;;5.21;89.24
39769;BME280;38939;47.824;14.642;2023-12-22T01:33:23;95185.38;;;5.08;88.70
39769;BME280;38939;47.824;14.642;2023-12-22T01:34:25;95216.41;;;5.08;89.06
39769;BME280;38939;47.824;14.642;2023-12-22T01:35:27;95168.06;;;5.08;88.44
39769;BME280;38939;47.824;14.642;2023-12-22T01:36:30;95153.78;;;5.06;88.21
39769;BME280;38939;47.824;14.642;2023-12-22T01:37:32;95162.31;;;5.06;87.77
39769;BME280;38939;47.824;14.642;2023-12-22T01:38:34;95167.13;;;5.03;87.21
39769;BME280;38939;47.824;14.642;2023-12-22T01:39:36;95164.38;;;4.97;86.16
39769;BME280;38939;47.824;14.642;2023-12-22T01:40:37;95183.91;;;4.93;85.67
39769;BME280;38939;47.824;14.642;2023-12-22T01:41:39;95183.31;;;4.91;85.58
39769;BME280;38939;47.824;14.642;2023-12-22T01:42:41;95191.66;;;4.93;84.73
39769;BME280;38939;47.824;14.642;2023-12-22T01:43:43;95186.47;;;4.93;83.31
39769;BME280;38939;47.824;14.642;2023-12-22T01:44:45;95156.31;;;4.87;83.84
39769;BME280;38939;47.824;14.642;2023-12-22T01:45:47;95152.31;;;4.91;84.37
39769;BME280;38939;47.824;14.642;2023-12-22T01:46:50;95183.69;;;4.95;84.56
39769;BME280;38939;47.824;14.642;2023-12-22T01:47:52;95159.22;;;4.97;83.79
39769;BME280;38939;47.824;14.642;2023-12-22T01:48:55;95114.50;;;4.97;84.29
39769;BME280;38939;47.824;14.642;2023-12-22T01:49:58;95143.91;;;4.96;83.33
39769;BME280;38939;47.824;14.642;2023-12-22T01:51:00;95156.47;;;4.92;82.71
39769;BME280;38939;47.824;14.642;2023-12-22T01:52:03;95154.88;;;4.91;81.38
39769;BME280;38939;47.824;14.642;2023-12-22T01:53:04;95142.16;;;4.90;81.88
39769;BME280;38939;47.824;14.642;2023-12-22T01:54:06;95146.56;;;4.89;83.10
39769;BME280;38939;47.824;14.642;2023-12-22T01:55:09;95145.53;;;4.90;83.10
39769;BME280;38939;47.824;14.642;2023-12-22T01:56:12;95142.56;;;4.93;83.25
39769;BME280;38939;47.824;14.642;2023-12-22T01:57:14;95130.22;;;4.95;82.64
39769;BME280;38939;47.824;14.642;2023-12-22T01:58:19;95107.94;;;4.94;81.81
39769;BME280;38939;47.824;14.642;2023-12-22T01:59:21;95128.22;;;4.91;79.05
39769;BME280;38939;47.824;14.642;2023-12-22T02:00:23;95133.19;;;4.92;79.02
39769;BME280;38939;47.824;14.642;2023-12-22T02:01:26;95140.53;;;4.95;80.77
39769;BME280;38939;47.824;14.642;2023-12-22T02:02:29;95151.47;;;4.97;82.45
39769;BME280;38939;47.824;14.642;2023-12-22T02:03:31;95151.25;;;4.99;83.47
39769;BME280;38939;47.824;14.642;2023-12-22T02:04:33;95143.28;;;5.00;83.41
39769;BME280;38939;47.824;14.642;2023-12-22T02:05:35;95141.06;;;5.04;83.85
39769;BME280;38939;47.824;14.642;2023-12-22T02:06:37;95144.03;;;5.08;84.62
39769;BME280;38939;47.824;14.642;2023-12-22T02:07:42;95151.59;;;5.09;84.66
39769;BME280;38939;47.824;14.642;2023-12-22T02:08:47;95138.41;;;5.11;84.93
39769;BME280;38939;47.824;14.642;2023-12-22T02:09:49;95110.22;;;5.09;85.59
39769;BME280;38939;47.824;14.642;2023-12-22T02:10:51;95106.81;;;5.09;85.84
39769;BME280;38939;47.824;14.642;2023-12-22T02:11:53;95107.66;;;5.03;85.12
39769;BME280;38939;47.824;14.642;2023-12-22T02:12:55;95111.56;;;4.87;84.18
39769;BME280;38939;47.824;14.642;2023-12-22T02:13:57;95123.97;;;4.78;80.27
39769;BME280;38939;47.824;14.642;2023-12-22T02:14:59;95116.41;;;4.76;81.20
39769;BME280;38939;47.824;14.642;2023-12-22T02:16:01;95131.75;;;4.71;82.80
39769;BME280;38939;47.824;14.642;2023-12-22T02:19:34;95098.56;;;4.75;82.59
39769;BME280;38939;47.824;14.642;2023-12-22T02:20:41;95128.41;;;4.71;83.26
39769;BME280;38939;47.824;14.642;2023-12-22T02:23:10;95115.81;;;4.49;80.86
39769;BME280;38939;47.824;14.642;2023-12-22T02:24:12;95092.72;;;4.54;79.62
39769;BME280;38939;47.824;14.642;2023-12-22T02:25:13;95067.84;;;4.60;79.28
39769;BME280;38939;47.824;14.642;2023-12-22T02:26:25;95066.44;;;4.64;80.11
39769;BME280;38939;47.824;14.642;2023-12-22T02:27:40;95077.13;;;4.68;73.61
39769;BME280;38939;47.824;14.642;2023-12-22T02:28:45;95094.19;;;4.75;74.80
39769;BME280;38939;47.824;14.642;2023-12-22T02:29:55;95094.31;;;4.80;76.52
39769;BME280;38939;47.824;14.642;2023-12-22T02:31:04;95110.19;;;4.84;78.14
39769;BME280;38939;47.824;14.642;2023-12-22T02:32:13;95103.63;;;4.88;78.53
39769;BME280;38939;47.824;14.642;2023-12-22T02:33:16;95119.13;;;4.88;79.62
39769;BME280;38939;47.824;14.642;2023-12-22T02:34:19;95111.38;;;4.88;80.69
39769;BME280;38939;47.824;14.642;2023-12-22T02:35:23;95085.38;;;4.83;83.19
39769;BME280;38939;47.824;14.642;2023-12-22T02:36:26;95101.28;;;4.80;83.18
39769;BME280;38939;47.824;14.642;2023-12-22T02:37:29;95100.91;;;4.76;83.43
39769;BME280;38939;47.824;14.642;2023-12-22T02:38:32;95109.72;;;4.69;81.94
39769;BME280;38939;47.824;14.642;2023-12-22T02:39:35;95100.97;;;4.70;82.09
39769;BME280;38939;47.824;14.642;2023-12-22T02:40:37;95101.53;;;4.72;81.88
39769;BME280;38939;47.824;14.642;2023-12-22T02:41:40;95110.50;;;4.69;82.41
39769;BME280;38939;47.824;14.642;2023-12-22T02:42:42;95106.97;;;4.64;82.44
39769;BME280;38939;47.824;14.642;2023-12-22T02:43:45;95105.63;;;4.54;83.49
39769;BME280;38939;47.824;14.642;2023-12-22T02:44:48;95098.09;;;4.53;84.12
39769;BME280;38939;47.824;14.642;2023-12-22T02:45:50;95080.03;;;4.53;84.40
39769;BME280;38939;47.824;14.642;2023-12-22T02:46:52;95074.06;;;4.52;82.40
39769;BME280;38939;47.824;14.642;2023-12-22T02:47:54;95070.47;;;4.53;79.17
39769;BME280;38939;47.824;14.642;2023-12-22T02:48:56;95082.19;;;4.56;80.45
39769;BME280;38939;47.824;14.642;2023-12-22T02:49:58;95063.91;;;4.57;81.39
39769;BME280;38939;47.824;14.642;2023-12-22T02:51:01;95052.56;;;4.58;81.66
39769;BME280;38939;47.824;14.642;2023-12-22T02:52:02;95055.38;;;4.57;79.66
39769;BME280;38939;47.824;14.642;2023-12-22T02:53:04;95080.38;;;4.56;79.22
39769;BME280;38939;47.824;14.642;2023-12-22T02:54:06;95088.50;;;4.60;79.91
39769;BME280;38939;47.824;14.642;2023-12-22T02:55:08;95095.06;;;4.63;80.84
39769;BME280;38939;47.824;14.642;2023-12-22T02:56:10;95101.81;;;4.64;79.41
39769;BME280;38939;47.824;14.642;2023-12-22T02:57:12;95075.19;;;4.63;76.34
39769;BME280;38939;47.824;14.642;2023-12-22T02:58:14;95068.81;;;4.66;77.56
39769;BME280;38939;47.824;14.642;2023-12-22T02:59:16;95083.09;;;4.68;78.93
39769;BME280;38939;47.824;14.642;2023-12-22T03:00:21;95077.72;;;4.70;80.57
39769;BME280;38939;47.824;14.642;2023-12-22T03:01:23;95077.91;;;4.68;80.51
39769;BME280;38939;47.824;14.642;2023-12-22T03:02:25;95093.41;;;4.68;80.71
39769;BME280;38939;47.824;14.642;2023-12-22T03:03:26;95089.25;;;4.67;78.31
39769;BME280;38939;47.824;14.642;2023-12-22T03:04:28;95077.91;;;4.68;78.34
39769;BME280;38939;47.824;14.642;2023-12-22T03:05:33;95077.50;;;4.71;79.24
39769;BME280;38939;47.824;14.642;2023-12-22T03:06:35;95099.53;;;4.74;79.47
39769;BME280;38939;47.824;14.642;2023-12-22T03:07:37;95103.28;;;4.78;80.06
39769;BME280;38939;47.824;14.642;2023-12-22T03:08:38;95100.91;;;4.76;79.82
39769;BME280;38939;47.824;14.642;2023-12-22T03:09:41;95085.00;;;4.79;79.14
39769;BME280;38939;47.824;14.642;2023-12-22T03:10:43;95100.50;;;4.79;79.17
39769;BME280;38939;47.824;14.642;2023-12-22T03:11:45;95093.75;;;4.78;79.44
39769;BME280;38939;47.824;14.642;2023-12-22T03:12:47;95113.47;;;4.73;79.14
39769;BME280;38939;47.824;14.642;2023-12-22T03:13:49;95118.84;;;4.71;79.38
39769;BME280;38939;47.824;14.642;2023-12-22T03:14:51;95095.78;;;4.70;80.57
39769;BME280;38939;47.824;14.642;2023-12-22T03:15:53;95109.72;;;4.69;80.95
39769;BME280;38939;47.824;14.642;2023-12-22T03:16:55;95109.28;;;4.72;81.46
39769;BME280;38939;47.824;14.642;2023-12-22T03:17:56;95086.88;;;4.66;80.04
39769;BME280;38939;47.824;14.642;2023-12-22T03:18:58;95076.03;;;4.57;78.88
39769;BME280;38939;47.824;14.642;2023-12-22T03:20:00;95075.66;;;4.53;78.89
39769;BME280;38939;47.824;14.642;2023-12-22T03:21:02;95075.66;;;4.53;78.02
39769;BME280;38939;47.824;14.642;2023-12-22T03:22:04;95072.44;;;4.58;78.64
39769;BME280;38939;47.824;14.642;2023-12-22T03:23:06;95067.66;;;4.61;78.71
39769;BME280;38939;47.824;14.642;2023-12-22T03:24:08;95073.97;;;4.66;79.50
39769;BME280;38939;47.824;14.642;2023-12-22T03:25:10;95067.59;;;4.68;79.50
39769;BME280;38939;47.824;14.642;2023-12-22T03:26:11;95074.34;;;4.69;79.04
39769;BME280;38939;47.824;14.642;2023-12-22T03:27:14;95086.88;;;4.66;79.57
39769;BME280;38939;47.824;14.642;2023-12-22T03:28:17;95097.06;;;4.60;76.41
39769;BME280;38939;47.824;14.642;2023-12-22T03:29:20;95119.09;;;4.63;77.33
39769;BME280;38939;47.824;14.642;2023-12-22T03:30:22;95152.25;;;4.66;77.79
39769;BME280;38939;47.824;14.642;2023-12-22T03:31:24;95140.72;;;4.69;78.01
39769;BME280;38939;47.824;14.642;2023-12-22T03:32:26;95117.25;;;4.70;78.88
39769;BME280;38939;47.824;14.642;2023-12-22T03:33:27;95130.41;;;4.69;80.05
39769;BME280;38939;47.824;14.642;2023-12-22T03:34:29;95171.16;;;4.67;79.46
39769;BME280;38939;47.824;14.642;2023-12-22T03:35:31;95176.16;;;4.55;78.33
39769;BME280;38939;47.824;14.642;2023-12-22T03:36:33;95142.66;;;4.41;78.43
39769;BME280;38939;47.824;14.642;2023-12-22T03:37:35;95144.50;;;4.34;76.53
39769;BME280;38939;47.824;14.642;2023-12-22T03:38:37;95131.78;;;4.33;78.08
39769;BME280;38939;47.824;14.642;2023-12-22T03:39:39;95117.06;;;4.33;79.13
39769;BME280;38939;47.824;14.642;2023-12-22T03:40:40;95157.63;;;4.26;78.43
39769;BME280;38939;47.824;14.642;2023-12-22T03:41:42;95171.72;;;4.24;79.29
39769;BME280;38939;47.824;14.642;2023-12-22T03:42:44;95165.97;;;4.21;80.58
39769;BME280;38939;47.824;14.642;2023-12-22T03:43:46;95158.03;;;4.23;81.17
39769;BME280;38939;47.824;14.642;2023-12-22T03:44:48;95144.94;;;4.25;81.04
39769;BME280;38939;47.824;14.642;2023-12-22T03:45:50;95141.53;;;4.24;81.02
39769;BME280;38939;47.824;14.642;2023-12-22T03:46:52;95146.34;;;4.20;80.77
39769;BME280;38939;47.824;14.642;2023-12-22T03:47:54;95173.56;;;4.16;82.23
39769;BME280;38939;47.824;14.642;2023-12-22T03:48:56;95188.03;;;4.17;83.53
39769;BME280;38939;47.824;14.642;2023-12-22T03:49:58;95168.75;;;4.20;83.59
39769;BME280;38939;47.824;14.642;2023-12-22T03:50:59;95162.03;;;4.19;83.89
39769;BME280;38939;47.824;14.642;2023-12-22T03:52:01;95171.34;;;4.20;84.25
39769;BME280;38939;47.824;14.642;2023-12-22T03:53:03;95159.25;;;4.20;83.79
39769;BME280;38939;47.824;14.642;2023-12-22T03:54:05;95163.22;;;4.16;83.98
39769;BME280;38939;47.824;14.642;2023-12-22T03:55:07;95168.63;;;4.08;83.07
39769;BME280;38939;47.824;14.642;2023-12-22T03:56:09;95158.09;;;4.03;82.53
39769;BME280;38939;47.824;14.642;2023-12-22T03:57:11;95151.38;;;4.02;81.88
39769;BME280;38939;47.824;14.642;2023-12-22T03:58:12;95165.69;;;3.98;81.90
39769;BME280;38939;47.824;14.642;2023-12-22T03:59:15;95171.81;;;3.97;82.26
39769;BME280;38939;47.824;14.642;2023-12-22T04:00:20;95190.09;;;4.02;82.74
39769;BME280;38939;47.824;14.642;2023-12-22T04:01:22;95189.88;;;3.97;82.37
39769;BME280;38939;47.824;14.642;2023-12-22T04:02:24;95205.59;;;3.89;83.66
39769;BME280;38939;47.824;14.642;2023-12-22T04:03:26;95205.41;;;3.77;83.73
39769;BME280;38939;47.824;14.642;2023-12-22T04:04:28;95206.19;;;3.77;85.15
39769;BME280;38939;47.824;14.642;2023-12-22T04:05:30;95204.63;;;3.76;86.07
39769;BME280;38939;47.824;14.642;2023-12-22T04:06:32;95200.25;;;3.77;86.90
39769;BME280;38939;47.824;14.642;2023-12-22T04:07:35;95196.28;;;3.81;87.32
39769;BME280;38939;47.824;14.642;2023-12-22T04:08:37;95187.31;;;3.84;88.12
39769;BME280;38939;47.824;14.642;2023-12-22T04:09:39;95191.69;;;3.83;88.54
39769;BME280;38939;47.824;14.642;2023-12-22T04:10:41;95195.09;;;3.77;88.85
39769;BME280;38939;47.824;14.642;2023-12-22T04:11:43;95202.25;;;3.68;89.05
39769;BME280;38939;47.824;14.642;2023-12-22T04:12:45;95206.41;;;3.69;89.05
39769;BME280;38939;47.824;14.642;2023-12-22T04:13:46;95203.22;;;3.67;89.59
39769;BME280;38939;47.824;14.642;2023-12-22T04:14:48;95211.19;;;3.59;89.84
39769;BME280;38939;47.824;14.642;2023-12-22T04:15:50;95195.13;;;3.57;89.69
39769;BME280;38939;47.824;14.642;2023-12-22T04:16:52;95201.66;;;3.53;89.70
39769;BME280;38939;47.824;14.642;2023-12-22T04:17:55;95192.16;;;3.47;90.12
39769;BME280;38939;47.824;14.642;2023-12-22T04:18:57;95213.38;;;3.49;90.64
39769;BME280;38939;47.824;14.642;2023-12-22T04:19:59;95224.47;;;3.49;90.63
39769;BME280;38939;47.824;14.642;2023-12-22T04:21:01;95203.66;;;3.51;90.96
39769;BME280;38939;47.824;14.642;2023-12-22T04:22:02;95226.06;;;3.50;90.96
39769;BME280;38939;47.824;14.642;2023-12-22T04:23:04;95218.94;;;3.46;91.03
39769;BME280;38939;47.824;14.642;2023-12-22T04:24:06;95190.38;;;3.40;91.20
39769;BME280;38939;47.824;14.642;2023-12-22T04:25:08;95209.03;;;3.36;91.57
39769;BME280;38939;47.824;14.642;2023-12-22T04:26:10;95206.03;;;3.19;91.73
39769;BME280;38939;47.824;14.642;2023-12-22T04:27:12;95201.28;;;3.16;92.15
39769;BME280;38939;47.824;14.642;2023-12-22T04:28:13;95213.34;;;3.09;92.94
39769;BME280;38939;47.824;14.642;2023-12-22T04:29:15;95230.41;;;3.10;93.09
39769;BME280;38939;47.824;14.642;2023-12-22T04:30:17;95237.53;;;3.01;93.27
39769;BME280;38939;47.824;14.642;2023-12-22T04:31:19;95226.78;;;2.91;93.17
39769;BME280;38939;47.824;14.642;2023-12-22T04:32:21;95205.81;;;2.94;93.91
39769;BME280;38939;47.824;14.642;2023-12-22T04:33:22;95195.88;;;2.91;93.78
39769;BME280;38939;47.824;14.642;2023-12-22T04:34:25;95215.28;;;2.87;94.33
39769;BME280;38939;47.824;14.642;2023-12-22T04:35:27;95209.16;;;2.81;94.62
39769;BME280;38939;47.824;14.642;2023-12-22T04:36:28;95169.72;;;2.80;94.51
39769;BME280;38939;47.824;14.642;2023-12-22T04:37:30;95160.00;;;2.76;94.53
39769;BME280;38939;47.824;14.642;2023-12-22T04:38:32;95186.75;;;2.68;95.11
39769;BME280;38939;47.824;14.642;2023-12-22T04:39:34;95186.13;;;2.59;94.99
39769;BME280;38939;47.824;14.642;2023-12-22T04:40:36;95173.47;;;2.65;95.19
39769;BME280;38939;47.824;14.642;2023-12-22T04:41:37;95175.47;;;2.69;95.90
39769;BME280;38939;47.824;14.642;2023-12-22T04:42:40;95181.63;;;2.75;95.36
39769;BME280;38939;47.824;14.642;2023-12-22T04:43:42;95193.72;;;2.81;95.44
39769;BME280;38939;47.824;14.642;2023-12-22T04:44:44;95171.72;;;2.85;95.98
39769;BME280;38939;47.824;14.642;2023-12-22T04:45:46;95168.56;;;2.90;95.91
39769;BME280;38939;47.824;14.642;2023-12-22T04:46:47;95164.78;;;2.86;94.88
39769;BME280;38939;47.824;14.642;2023-12-22T04:47:49;95176.28;;;2.90;95.54
39769;BME280;38939;47.824;14.642;2023-12-22T04:48:52;95189.56;;;2.93;94.97
39769;BME280;38939;47.824;14.642;2023-12-22T04:49:54;95196.69;;;2.98;94.93
39769;BME280;38939;47.824;14.642;2023-12-22T04:50:56;95182.44;;;3.02;95.00
39769;BME280;38939;47.824;14.642;2023-12-22T04:51:58;95161.81;;;3.09;95.15
39769;BME280;38939;47.824;14.642;2023-12-22T04:53:03;95141.22;;;3.15;95.14
39769;BME280;38939;47.824;14.642;2023-12-22T04:54:05;95140.81;;;3.18;94.80
39769;BME280;38939;47.824;14.642;2023-12-22T04:55:07;95138.84;;;3.14;94.90
39769;BME280;38939;47.824;14.642;2023-12-22T04:56:09;95145.59;;;3.02;94.20
39769;BME280;38939;47.824;14.642;2023-12-22T04:57:10;95144.19;;;2.99;94.41
39769;BME280;38939;47.824;14.642;2023-12-22T04:58:14;95119.00;;;2.94;94.57
39769;BME280;38939;47.824;14.642;2023-12-22T04:59:17;95118.63;;;2.97;94.01
39769;BME280;38939;47.824;14.642;2023-12-22T05:00:18;95131.69;;;3.03;93.97
39769;BME280;38939;47.824;14.642;2023-12-22T05:01:21;95139.22;;;3.04;93.86
39769;BME280;38939;47.824;14.642;2023-12-22T05:02:23;95129.34;;;3.01;93.81
39769;BME280;38939;47.824;14.642;2023-12-22T05:03:24;95140.22;;;2.96;94.28
39769;BME280;38939;47.824;14.642;2023-12-22T05:04:26;95161.03;;;2.88;93.77
39769;BME280;38939;47.824;14.642;2023-12-22T05:05:29;95151.72;;;2.87;94.08
39769;BME280;38939;47.824;14.642;2023-12-22T05:06:30;95132.69;;;2.82;93.85
39769;BME280;38939;47.824;14.642;2023-12-22T05:07:32;95156.66;;;2.82;94.16
39769;BME280;38939;47.824;14.642;2023-12-22T05:08:34;95165.75;;;2.78;94.23
39769;BME280;38939;47.824;14.642;2023-12-22T05:09:36;95155.88;;;2.75;94.84
39769;BME280;38939;47.824;14.642;2023-12-22T05:10:38;95159.81;;;2.77;94.67
39769;BME280;38939;47.824;14.642;2023-12-22T05:11:40;95137.84;;;2.88;95.14
39769;BME280;38939;47.824;14.642;2023-12-22T05:12:42;95150.94;;;2.93;95.05
39769;BME280;38939;47.824;14.642;2023-12-22T05:13:44;95148.75;;;2.97;94.86
39769;BME280;38939;47.824;14.642;2023-12-22T05:14:46;95152.72;;;2.99;95.27
39769;BME280;38939;47.824;14.642;2023-12-22T05:15:48;95146.56;;;3.00;94.67
39769;BME280;38939;47.824;14.642;2023-12-22T05:16:50;95159.81;;;2.84;94.24
39769;BME280;38939;47.824;14.642;2023-12-22T05:17:56;95157.84;;;2.73;95.30
39769;BME280;38939;47.824;14.642;2023-12-22T05:18:58;95146.16;;;2.77;94.81
39769;BME280;38939;47.824;14.642;2023-12-22T05:20:00;95162.22;;;2.86;95.20
39769;BME280;38939;47.824;14.642;2023-12-22T05:21:03;95151.72;;;2.87;94.85
39769;BME280;38939;47.824;14.642;2023-12-22T05:22:05;95142.59;;;2.85;95.26
39769;BME280;38939;47.824;14.642;2023-12-22T05:23:07;95135.25;;;2.88;95.03
39769;BME280;38939;47.824;14.642;2023-12-22T05:24:09;95135.44;;;2.87;94.94
39769;BME280;38939;47.824;14.642;2023-12-22T05:25:12;95146.94;;;2.84;95.18
39769;BME280;38939;47.824;14.642;2023-12-22T05:26:18;95145.56;;;2.88;94.93
39769;BME280;38939;47.824;14.642;2023-12-22T05:27:20;95130.13;;;2.88;95.11
39769;BME280;38939;47.824;14.642;2023-12-22T05:28:22;95136.47;;;2.86;94.64
39769;BME280;38939;47.824;14.642;2023-12-22T05:29:23;95129.13;;;2.89;95.04
39769;BME280;38939;47.824;14.642;2023-12-22T05:30:25;95130.50;;;2.78;94.32
39769;BME280;38939;47.824;14.642;2023-12-22T05:31:27;95149.31;;;2.72;95.14
39769;BME280;38939;47.824;14.642;2023-12-22T05:32:29;95154.47;;;2.66;95.35
39769;BME280;38939;47.824;14.642;2023-12-22T05:33:31;95128.53;;;2.67;96.00